sensor_id;sensor_type;location;lat;lon;timestamp;pressure;altitude;pressure_sealevel;temperature;humidity
39739;BME280;25422;48.286;8.484;2023-08-08T00:01:10;94354.47;;;7.46;100.00
39739;BME280;25422;48.286;8.484;2023-08-08T00:03:35;94353.22;;;7.50;100.00
39739;BME280;25422;48.286;8.484;2023-08-08T00:06:01;94358.28;;;7.51;100.00
39739;BME280;25422;48.286;8.484;2023-08-08T00:08:26;94357.16;;;7.54;100.00
39739;BME280;25422;48.286;8.484;2023-08-08T00:10:51;94360.00;;;7.60;100.00
39739;BME280;25422;48.286;8.484;2023-08-08T00:13:17;94356.75;;;7.58;100.00
39739;BME280;25422;48.286;8.484;2023-08-08T00:15:43;94353.03;;;7.61;100.00
39739;BME280;25422;48.286;8.484;2023-08-08T00:18:08;94362.47;;;7.62;100.00
39739;BME280;25422;48.286;8.484;2023-08-08T00:20:33;94359.28;;;7.68;100.00
39739;BME280;25422;48.286;8.484;2023-08-08T00:22:59;94358.31;;;7.69;100.00
39739;BME280;25422;48.286;8.484;2023-08-08T00:25:24;94343.72;;;7.76;100.00
39739;BME280;25422;48.286;8.484;2023-08-08T00:27:50;94353.47;;;7.74;100.00
39739;BME280;25422;48.286;8.484;2023-08-08T00:30:15;94354.59;;;7.72;100.00
39739;BME280;25422;48.286;8.484;2023-08-08T00:32:41;94344.19;;;7.72;100.00
39739;BME280;25422;48.286;8.484;2023-08-08T00:35:06;94342.09;;;7.75;100.00
39739;BME280;25422;48.286;8.484;2023-08-08T00:37:32;94333.31;;;7.76;100.00
39739;BME280;25422;48.286;8.484;2023-08-08T00:39:58;94327.78;;;7.80;100.00
39739;BME280;25422;48.286;8.484;2023-08-08T00:42:25;94327.00;;;7.79;100.00
39739;BME280;25422;48.286;8.484;2023-08-08T00:44:50;94328.19;;;7.85;100.00
39739;BME280;25422;48.286;8.484;2023-08-08T00:47:16;94326.59;;;7.92;100.00
39739;BME280;25422;48.286;8.484;2023-08-08T00:49:42;94327.44;;;7.92;100.00
39739;BME280;25422;48.286;8.484;2023-08-08T00:52:09;94327.66;;;7.99;100.00
39739;BME280;25422;48.286;8.484;2023-08-08T00:54:35;94323.47;;;8.06;100.00
39739;BME280;25422;48.286;8.484;2023-08-08T00:57:01;94324.28;;;8.07;100.00
39739;BME280;25422;48.286;8.484;2023-08-08T00:59:27;94328.09;;;8.13;100.00
39739;BME280;25422;48.286;8.484;2023-08-08T01:01:52;94317.22;;;8.17;100.00
39739;BME280;25422;48.286;8.484;2023-08-08T01:04:18;94312.97;;;8.16;100.00
39739;BME280;25422;48.286;8.484;2023-08-08T01:06:53;94316.41;;;8.17;100.00
39739;BME280;25422;48.286;8.484;2023-08-08T01:09:21;94312.53;;;8.21;100.00
39739;BME280;25422;48.286;8.484;2023-08-08T01:11:49;94308.81;;;8.23;100.00
39739;BME280;25422;48.286;8.484;2023-08-08T01:14:16;94320.84;;;8.24;100.00
39739;BME280;25422;48.286;8.484;2023-08-08T01:16:42;94313.69;;;8.26;100.00
39739;BME280;25422;48.286;8.484;2023-08-08T01:19:12;94316.00;;;8.30;100.00
39739;BME280;25422;48.286;8.484;2023-08-08T01:21:42;94310.34;;;8.34;100.00
39739;BME280;25422;48.286;8.484;2023-08-08T01:24:17;94301.09;;;8.40;100.00
39739;BME280;25422;48.286;8.484;2023-08-08T01:26:43;94300.94;;;8.41;100.00
39739;BME280;25422;48.286;8.484;2023-08-08T01:29:09;94300.78;;;8.43;100.00
39739;BME280;25422;48.286;8.484;2023-08-08T01:31:34;94292.00;;;8.44;100.00
39739;BME280;25422;48.286;8.484;2023-08-08T01:33:59;94292.06;;;8.52;100.00
39739;BME280;25422;48.286;8.484;2023-08-08T01:36:30;94303.38;;;8.43;100.00
39739;BME280;25422;48.286;8.484;2023-08-08T01:38:59;94296.53;;;8.42;100.00
39739;BME280;25422;48.286;8.484;2023-08-08T01:41:31;94302.06;;;8.39;100.00
39739;BME280;25422;48.286;8.484;2023-08-08T01:43:58;94297.66;;;8.39;100.00
39739;BME280;25422;48.286;8.484;2023-08-08T01:46:24;94292.59;;;8.38;100.00
39739;BME280;25422;48.286;8.484;2023-08-08T01:48:52;94294.06;;;8.40;100.00
39739;BME280;25422;48.286;8.484;2023-08-08T01:51:18;94294.69;;;8.34;100.00
39739;BME280;25422;48.286;8.484;2023-08-08T01:53:43;94290.66;;;8.40;100.00
39739;BME280;25422;48.286;8.484;2023-08-08T01:56:08;94291.31;;;8.42;100.00
39739;BME280;25422;48.286;8.484;2023-08-08T01:58:35;94289.97;;;8.38;100.00
39739;BME280;25422;48.286;8.484;2023-08-08T02:01:01;94290.34;;;8.43;100.00
39739;BME280;25422;48.286;8.484;2023-08-08T02:03:26;94291.16;;;8.43;100.00
39739;BME280;25422;48.286;8.484;2023-08-08T02:05:52;94290.44;;;8.51;100.00
39739;BME280;25422;48.286;8.484;2023-08-08T02:08:17;94290.50;;;8.41;100.00
39739;BME280;25422;48.286;8.484;2023-08-08T02:10:43;94294.31;;;8.47;100.00
39739;BME280;25422;48.286;8.484;2023-08-08T02:13:08;94291.53;;;8.49;100.00
39739;BME280;25422;48.286;8.484;2023-08-08T02:15:34;94294.00;;;8.50;100.00
39739;BME280;25422;48.286;8.484;2023-08-08T02:17:59;94295.03;;;8.57;100.00
39739;BME280;25422;48.286;8.484;2023-08-08T02:20:25;94291.94;;;8.62;100.00
39739;BME280;25422;48.286;8.484;2023-08-08T02:22:51;94294.19;;;8.57;100.00
39739;BME280;25422;48.286;8.484;2023-08-08T02:25:17;94291.16;;;8.62;100.00
39739;BME280;25422;48.286;8.484;2023-08-08T02:27:43;94287.53;;;8.63;100.00
39739;BME280;25422;48.286;8.484;2023-08-08T02:30:09;94282.84;;;8.66;100.00
39739;BME280;25422;48.286;8.484;2023-08-08T02:32:35;94286.94;;;8.69;100.00
39739;BME280;25422;48.286;8.484;2023-08-08T02:35:00;94285.63;;;8.65;100.00
39739;BME280;25422;48.286;8.484;2023-08-08T02:37:25;94286.22;;;8.58;100.00
39739;BME280;25422;48.286;8.484;2023-08-08T02:39:51;94287.69;;;8.61;100.00
39739;BME280;25422;48.286;8.484;2023-08-08T02:42:16;94287.84;;;8.59;100.00
39739;BME280;25422;48.286;8.484;2023-08-08T02:44:42;94290.25;;;8.53;100.00
39739;BME280;25422;48.286;8.484;2023-08-08T02:47:08;94274.88;;;8.41;100.00
39739;BME280;25422;48.286;8.484;2023-08-08T02:49:33;94280.53;;;8.37;100.00
39739;BME280;25422;48.286;8.484;2023-08-08T02:52:00;94277.56;;;8.32;100.00
39739;BME280;25422;48.286;8.484;2023-08-08T02:54:27;94272.97;;;8.25;100.00
39739;BME280;25422;48.286;8.484;2023-08-08T02:56:54;94271.78;;;8.20;100.00
39739;BME280;25422;48.286;8.484;2023-08-08T02:59:19;94271.56;;;8.13;100.00
39739;BME280;25422;48.286;8.484;2023-08-08T03:01:46;94267.63;;;8.09;100.00
39739;BME280;25422;48.286;8.484;2023-08-08T03:04:16;94273.59;;;8.01;100.00
39739;BME280;25422;48.286;8.484;2023-08-08T03:06:41;94270.63;;;7.96;100.00
39739;BME280;25422;48.286;8.484;2023-08-08T03:09:07;94282.03;;;7.95;100.00
39739;BME280;25422;48.286;8.484;2023-08-08T03:11:34;94276.47;;;7.90;100.00
39739;BME280;25422;48.286;8.484;2023-08-08T03:13:59;94272.44;;;7.78;100.00
39739;BME280;25422;48.286;8.484;2023-08-08T03:16:25;94284.88;;;7.66;100.00
39739;BME280;25422;48.286;8.484;2023-08-08T03:18:52;94273.84;;;7.54;100.00
39739;BME280;25422;48.286;8.484;2023-08-08T03:21:18;94280.31;;;7.50;100.00
39739;BME280;25422;48.286;8.484;2023-08-08T03:23:44;94275.03;;;7.41;100.00
39739;BME280;25422;48.286;8.484;2023-08-08T03:26:10;94270.28;;;7.37;100.00
39739;BME280;25422;48.286;8.484;2023-08-08T03:28:35;94280.47;;;7.30;100.00
39739;BME280;25422;48.286;8.484;2023-08-08T03:31:00;94283.94;;;7.21;100.00
39739;BME280;25422;48.286;8.484;2023-08-08T03:33:29;94284.66;;;7.13;100.00
39739;BME280;25422;48.286;8.484;2023-08-08T03:35:54;94281.66;;;7.08;100.00
39739;BME280;25422;48.286;8.484;2023-08-08T03:38:20;94286.78;;;7.00;100.00
39739;BME280;25422;48.286;8.484;2023-08-08T03:40:45;94287.38;;;6.94;100.00
39739;BME280;25422;48.286;8.484;2023-08-08T03:43:11;94292.34;;;6.87;100.00
39739;BME280;25422;48.286;8.484;2023-08-08T03:45:36;94291.38;;;6.88;100.00
39739;BME280;25422;48.286;8.484;2023-08-08T03:48:02;94281.13;;;6.86;100.00
39739;BME280;25422;48.286;8.484;2023-08-08T03:50:28;94278.28;;;6.80;100.00
39739;BME280;25422;48.286;8.484;2023-08-08T03:52:55;94282.41;;;6.72;100.00
39739;BME280;25422;48.286;8.484;2023-08-08T03:55:20;94280.91;;;6.70;100.00
39739;BME280;25422;48.286;8.484;2023-08-08T03:57:46;94283.00;;;6.66;100.00
39739;BME280;25422;48.286;8.484;2023-08-08T04:00:12;94287.63;;;6.63;100.00
39739;BME280;25422;48.286;8.484;2023-08-08T04:02:40;94284.50;;;6.59;100.00
39739;BME280;25422;48.286;8.484;2023-08-08T04:05:06;94288.06;;;6.58;100.00
39739;BME280;25422;48.286;8.484;2023-08-08T04:07:32;94291.50;;;6.58;100.00
39739;BME280;25422;48.286;8.484;2023-08-08T04:09:58;94294.09;;;6.58;100.00
39739;BME280;25422;48.286;8.484;2023-08-08T04:12:23;94296.53;;;6.60;100.00
39739;BME280;25422;48.286;8.484;2023-08-08T04:14:49;94291.19;;;6.62;100.00
39739;BME280;25422;48.286;8.484;2023-08-08T04:17:14;94293.53;;;6.55;100.00
39739;BME280;25422;48.286;8.484;2023-08-08T04:19:39;94295.34;;;6.54;100.00
39739;BME280;25422;48.286;8.484;2023-08-08T04:22:05;94296.72;;;6.49;100.00
39739;BME280;25422;48.286;8.484;2023-08-08T04:24:30;94292.63;;;6.46;100.00
39739;BME280;25422;48.286;8.484;2023-08-08T04:26:56;94293.72;;;6.44;100.00
39739;BME280;25422;48.286;8.484;2023-08-08T04:29:21;94300.72;;;6.43;100.00
39739;BME280;25422;48.286;8.484;2023-08-08T04:31:46;94301.38;;;6.45;100.00
39739;BME280;25422;48.286;8.484;2023-08-08T04:34:12;94300.28;;;6.48;100.00
39739;BME280;25422;48.286;8.484;2023-08-08T04:36:37;94301.22;;;6.47;100.00
39739;BME280;25422;48.286;8.484;2023-08-08T04:39:03;94300.53;;;6.54;100.00
39739;BME280;25422;48.286;8.484;2023-08-08T04:41:28;94293.94;;;6.60;100.00
39739;BME280;25422;48.286;8.484;2023-08-08T04:43:54;94297.03;;;6.73;100.00
39739;BME280;25422;48.286;8.484;2023-08-08T04:46:19;94289.94;;;7.03;100.00
39739;BME280;25422;48.286;8.484;2023-08-08T04:48:45;94288.19;;;7.22;100.00
39739;BME280;25422;48.286;8.484;2023-08-08T04:51:10;94280.78;;;7.27;100.00
39739;BME280;25422;48.286;8.484;2023-08-08T04:53:35;94288.50;;;7.55;100.00
39739;BME280;25422;48.286;8.484;2023-08-08T04:56:01;94270.81;;;7.76;100.00
39739;BME280;25422;48.286;8.484;2023-08-08T04:58:26;94279.94;;;7.99;100.00
39739;BME280;25422;48.286;8.484;2023-08-08T05:00:51;94291.31;;;8.16;100.00
39739;BME280;25422;48.286;8.484;2023-08-08T05:03:17;94288.38;;;8.19;100.00
39739;BME280;25422;48.286;8.484;2023-08-08T05:05:43;94286.53;;;8.11;100.00
39739;BME280;25422;48.286;8.484;2023-08-08T05:08:12;94290.00;;;7.93;100.00
39739;BME280;25422;48.286;8.484;2023-08-08T05:10:38;94287.59;;;8.00;100.00
39739;BME280;25422;48.286;8.484;2023-08-08T05:13:03;94286.25;;;8.40;100.00
39739;BME280;25422;48.286;8.484;2023-08-08T05:15:29;94274.78;;;9.28;100.00
39739;BME280;25422;48.286;8.484;2023-08-08T05:17:55;94283.34;;;10.21;100.00
39739;BME280;25422;48.286;8.484;2023-08-08T05:20:20;94289.25;;;11.12;100.00
39739;BME280;25422;48.286;8.484;2023-08-08T05:22:46;94281.63;;;11.34;100.00
39739;BME280;25422;48.286;8.484;2023-08-08T05:25:12;94284.09;;;11.59;100.00
39739;BME280;25422;48.286;8.484;2023-08-08T05:27:37;94278.88;;;12.28;100.00
39739;BME280;25422;48.286;8.484;2023-08-08T05:30:03;94272.22;;;12.71;100.00
39739;BME280;25422;48.286;8.484;2023-08-08T05:32:29;94282.38;;;13.19;100.00
39739;BME280;25422;48.286;8.484;2023-08-08T05:34:55;94273.78;;;13.61;100.00
39739;BME280;25422;48.286;8.484;2023-08-08T05:37:22;94275.25;;;14.07;100.00
39739;BME280;25422;48.286;8.484;2023-08-08T05:39:47;94270.84;;;14.93;100.00
39739;BME280;25422;48.286;8.484;2023-08-08T05:42:13;94274.38;;;15.55;100.00
39739;BME280;25422;48.286;8.484;2023-08-08T05:44:38;94271.31;;;16.27;100.00
39739;BME280;25422;48.286;8.484;2023-08-08T05:47:04;94269.16;;;17.29;100.00
39739;BME280;25422;48.286;8.484;2023-08-08T05:49:30;94277.41;;;17.53;97.99
39739;BME280;25422;48.286;8.484;2023-08-08T05:51:55;94269.72;;;17.45;94.17
39739;BME280;25422;48.286;8.484;2023-08-08T05:54:20;94279.22;;;18.05;91.49
39739;BME280;25422;48.286;8.484;2023-08-08T05:56:46;94275.72;;;17.72;95.16
39739;BME280;25422;48.286;8.484;2023-08-08T05:59:11;94277.19;;;16.22;100.00
39739;BME280;25422;48.286;8.484;2023-08-08T06:01:37;94287.09;;;15.87;100.00
39739;BME280;25422;48.286;8.484;2023-08-08T06:04:02;94277.38;;;14.97;100.00
39739;BME280;25422;48.286;8.484;2023-08-08T06:06:31;94278.50;;;14.59;100.00
39739;BME280;25422;48.286;8.484;2023-08-08T06:08:56;94280.72;;;14.56;100.00
39739;BME280;25422;48.286;8.484;2023-08-08T06:11:22;94273.97;;;15.03;100.00
39739;BME280;25422;48.286;8.484;2023-08-08T06:13:48;94275.66;;;15.73;100.00
39739;BME280;25422;48.286;8.484;2023-08-08T06:16:14;94272.13;;;16.47;100.00
39739;BME280;25422;48.286;8.484;2023-08-08T06:18:41;94278.41;;;16.40;100.00
39739;BME280;25422;48.286;8.484;2023-08-08T06:21:06;94272.13;;;16.21;100.00
39739;BME280;25422;48.286;8.484;2023-08-08T06:23:32;94277.78;;;16.04;100.00
39739;BME280;25422;48.286;8.484;2023-08-08T06:25:57;94271.31;;;16.33;100.00
39739;BME280;25422;48.286;8.484;2023-08-08T06:28:23;94278.63;;;16.58;100.00
39739;BME280;25422;48.286;8.484;2023-08-08T06:30:48;94271.91;;;16.76;100.00
39739;BME280;25422;48.286;8.484;2023-08-08T06:33:14;94264.97;;;17.01;100.00
39739;BME280;25422;48.286;8.484;2023-08-08T06:35:39;94271.06;;;16.89;100.00
39739;BME280;25422;48.286;8.484;2023-08-08T06:38:05;94274.66;;;17.80;100.00
39739;BME280;25422;48.286;8.484;2023-08-08T06:40:30;94277.09;;;17.23;100.00
39739;BME280;25422;48.286;8.484;2023-08-08T06:42:56;94271.66;;;18.65;100.00
39739;BME280;25422;48.286;8.484;2023-08-08T06:45:21;94278.75;;;19.34;88.12
39739;BME280;25422;48.286;8.484;2023-08-08T06:47:47;94272.69;;;19.82;80.14
39739;BME280;25422;48.286;8.484;2023-08-08T06:50:15;94267.06;;;19.72;75.44
39739;BME280;25422;48.286;8.484;2023-08-08T06:52:45;94267.13;;;20.14;69.88
39739;BME280;25422;48.286;8.484;2023-08-08T06:55:12;94271.06;;;18.89;69.29
39739;BME280;25422;48.286;8.484;2023-08-08T06:57:39;94264.88;;;18.69;73.88
39739;BME280;25422;48.286;8.484;2023-08-08T07:00:05;94269.94;;;18.96;71.87
39739;BME280;25422;48.286;8.484;2023-08-08T07:02:34;94267.97;;;19.29;72.46
39739;BME280;25422;48.286;8.484;2023-08-08T07:05:00;94271.44;;;19.48;72.98
39739;BME280;25422;48.286;8.484;2023-08-08T07:07:26;94269.84;;;19.96;68.13
39739;BME280;25422;48.286;8.484;2023-08-08T07:09:55;94267.63;;;20.23;66.64
39739;BME280;25422;48.286;8.484;2023-08-08T07:12:23;94265.66;;;20.18;63.70
39739;BME280;25422;48.286;8.484;2023-08-08T07:14:49;94270.34;;;20.04;67.83
39739;BME280;25422;48.286;8.484;2023-08-08T07:17:16;94266.16;;;19.29;73.14
39739;BME280;25422;48.286;8.484;2023-08-08T07:19:50;94264.97;;;18.81;74.72
39739;BME280;25422;48.286;8.484;2023-08-08T07:22:16;94266.34;;;19.46;65.95
39739;BME280;25422;48.286;8.484;2023-08-08T07:24:43;94262.25;;;18.69;72.39
39739;BME280;25422;48.286;8.484;2023-08-08T07:27:12;94265.00;;;17.99;73.33
39739;BME280;25422;48.286;8.484;2023-08-08T07:29:41;94264.16;;;19.43;65.14
39739;BME280;25422;48.286;8.484;2023-08-08T07:32:07;94265.72;;;20.54;58.92
39739;BME280;25422;48.286;8.484;2023-08-08T07:34:35;94275.72;;;19.98;60.33
39739;BME280;25422;48.286;8.484;2023-08-08T07:37:05;94269.34;;;20.71;60.23
39739;BME280;25422;48.286;8.484;2023-08-08T07:39:41;94266.03;;;21.52;52.69
39739;BME280;25422;48.286;8.484;2023-08-08T07:42:08;94264.09;;;20.53;56.78
39739;BME280;25422;48.286;8.484;2023-08-08T07:44:35;94273.06;;;20.82;57.73
39739;BME280;25422;48.286;8.484;2023-08-08T07:47:04;94271.94;;;19.75;61.76
39739;BME280;25422;48.286;8.484;2023-08-08T07:49:32;94262.84;;;20.67;60.42
39739;BME280;25422;48.286;8.484;2023-08-08T07:51:57;94263.66;;;22.37;48.99
39739;BME280;25422;48.286;8.484;2023-08-08T07:54:23;94265.38;;;20.62;54.48
39739;BME280;25422;48.286;8.484;2023-08-08T07:56:48;94264.59;;;19.40;61.13
39739;BME280;25422;48.286;8.484;2023-08-08T07:59:14;94264.75;;;19.27;62.22
39739;BME280;25422;48.286;8.484;2023-08-08T08:01:39;94262.91;;;19.76;60.90
39739;BME280;25422;48.286;8.484;2023-08-08T08:04:06;94270.94;;;20.72;57.53
39739;BME280;25422;48.286;8.484;2023-08-08T08:06:31;94266.56;;;20.12;58.32
39739;BME280;25422;48.286;8.484;2023-08-08T08:08:56;94254.94;;;21.44;53.87
39739;BME280;25422;48.286;8.484;2023-08-08T08:11:22;94255.81;;;22.02;50.93
39739;BME280;25422;48.286;8.484;2023-08-08T08:13:47;94250.78;;;21.88;51.94
39739;BME280;25422;48.286;8.484;2023-08-08T08:16:13;94252.28;;;21.44;51.41
39739;BME280;25422;48.286;8.484;2023-08-08T08:18:38;94251.25;;;22.31;50.55
39739;BME280;25422;48.286;8.484;2023-08-08T08:21:04;94260.03;;;22.44;51.34
39739;BME280;25422;48.286;8.484;2023-08-08T08:23:30;94249.69;;;23.37;45.45
39739;BME280;25422;48.286;8.484;2023-08-08T08:25:57;94256.38;;;22.50;47.52
39739;BME280;25422;48.286;8.484;2023-08-08T08:28:23;94259.63;;;21.77;49.51
39739;BME280;25422;48.286;8.484;2023-08-08T08:30:48;94256.19;;;21.94;49.76
39739;BME280;25422;48.286;8.484;2023-08-08T08:33:14;94257.13;;;21.59;49.69
39739;BME280;25422;48.286;8.484;2023-08-08T08:35:40;94262.69;;;21.45;51.35
39739;BME280;25422;48.286;8.484;2023-08-08T08:38:05;94271.25;;;20.41;54.28
39739;BME280;25422;48.286;8.484;2023-08-08T08:40:37;94259.06;;;20.99;51.64
39739;BME280;25422;48.286;8.484;2023-08-08T08:43:04;94260.38;;;22.18;48.46
39739;BME280;25422;48.286;8.484;2023-08-08T08:45:29;94260.41;;;20.66;52.51
39739;BME280;25422;48.286;8.484;2023-08-08T08:47:56;94271.25;;;20.41;54.13
39739;BME280;25422;48.286;8.484;2023-08-08T08:50:23;94267.75;;;19.98;53.30
39739;BME280;25422;48.286;8.484;2023-08-08T08:52:51;94262.16;;;19.01;61.30
39739;BME280;25422;48.286;8.484;2023-08-08T08:55:21;94274.91;;;19.48;60.26
39739;BME280;25422;48.286;8.484;2023-08-08T08:57:48;94268.19;;;19.64;59.21
39739;BME280;25422;48.286;8.484;2023-08-08T09:00:15;94265.47;;;19.71;62.86
39739;BME280;25422;48.286;8.484;2023-08-08T09:02:41;94261.84;;;19.65;57.11
39739;BME280;25422;48.286;8.484;2023-08-08T09:05:10;94270.25;;;21.13;53.37
39739;BME280;25422;48.286;8.484;2023-08-08T09:07:41;94269.16;;;19.33;57.80
39739;BME280;25422;48.286;8.484;2023-08-08T09:10:09;94267.69;;;19.00;59.79
39739;BME280;25422;48.286;8.484;2023-08-08T09:12:36;94264.97;;;19.07;61.31
39739;BME280;25422;48.286;8.484;2023-08-08T09:15:03;94265.06;;;18.49;63.71
39739;BME280;25422;48.286;8.484;2023-08-08T09:17:32;94267.97;;;18.92;62.47
39739;BME280;25422;48.286;8.484;2023-08-08T09:19:57;94267.44;;;18.58;64.42
39739;BME280;25422;48.286;8.484;2023-08-08T09:22:31;94258.66;;;18.32;69.71
39739;BME280;25422;48.286;8.484;2023-08-08T09:24:59;94265.22;;;19.73;65.18
39739;BME280;25422;48.286;8.484;2023-08-08T09:27:28;94265.53;;;20.13;60.19
39739;BME280;25422;48.286;8.484;2023-08-08T09:30:03;94255.06;;;20.42;56.47
39739;BME280;25422;48.286;8.484;2023-08-08T09:32:33;94258.94;;;18.99;63.28
39739;BME280;25422;48.286;8.484;2023-08-08T09:35:01;94246.38;;;18.88;66.77
39739;BME280;25422;48.286;8.484;2023-08-08T09:37:28;94256.06;;;19.19;68.25
39739;BME280;25422;48.286;8.484;2023-08-08T09:40:00;94259.56;;;20.30;59.70
39739;BME280;25422;48.286;8.484;2023-08-08T09:42:27;94250.16;;;20.69;55.94
39739;BME280;25422;48.286;8.484;2023-08-08T09:44:54;94240.69;;;20.74;55.56
39739;BME280;25422;48.286;8.484;2023-08-08T09:47:23;94244.63;;;19.37;61.44
39739;BME280;25422;48.286;8.484;2023-08-08T09:49:59;94239.28;;;20.95;57.38
39739;BME280;25422;48.286;8.484;2023-08-08T09:52:27;94243.53;;;21.19;52.41
39739;BME280;25422;48.286;8.484;2023-08-08T09:54:56;94236.56;;;21.42;53.60
39739;BME280;25422;48.286;8.484;2023-08-08T09:57:22;94244.31;;;21.44;53.75
39739;BME280;25422;48.286;8.484;2023-08-08T09:59:51;94244.06;;;22.32;52.32
39739;BME280;25422;48.286;8.484;2023-08-08T10:02:17;94242.81;;;22.68;52.00
39739;BME280;25422;48.286;8.484;2023-08-08T10:04:46;94237.19;;;22.19;49.86
39739;BME280;25422;48.286;8.484;2023-08-08T10:07:12;94239.09;;;21.89;51.25
39739;BME280;25422;48.286;8.484;2023-08-08T10:09:37;94235.19;;;21.28;50.47
39739;BME280;25422;48.286;8.484;2023-08-08T10:12:06;94236.50;;;20.00;58.15
39739;BME280;25422;48.286;8.484;2023-08-08T10:14:35;94243.56;;;19.57;58.65
39739;BME280;25422;48.286;8.484;2023-08-08T10:17:05;94230.22;;;19.82;57.01
39739;BME280;25422;48.286;8.484;2023-08-08T10:19:32;94227.94;;;19.98;57.14
39739;BME280;25422;48.286;8.484;2023-08-08T10:22:02;94230.25;;;19.94;59.56
39739;BME280;25422;48.286;8.484;2023-08-08T10:24:33;94229.75;;;19.18;63.51
39739;BME280;25422;48.286;8.484;2023-08-08T10:27:00;94227.72;;;19.50;63.84
39739;BME280;25422;48.286;8.484;2023-08-08T10:29:29;94226.81;;;18.89;65.89
39739;BME280;25422;48.286;8.484;2023-08-08T10:31:59;94228.25;;;19.41;56.83
39739;BME280;25422;48.286;8.484;2023-08-08T10:34:39;94226.88;;;19.01;60.78
39739;BME280;25422;48.286;8.484;2023-08-08T10:37:09;94231.75;;;18.60;65.42
39739;BME280;25422;48.286;8.484;2023-08-08T10:39:35;94228.00;;;18.68;65.36
39739;BME280;25422;48.286;8.484;2023-08-08T10:42:04;94231.84;;;18.72;61.73
39739;BME280;25422;48.286;8.484;2023-08-08T10:44:30;94233.19;;;19.37;61.54
39739;BME280;25422;48.286;8.484;2023-08-08T10:46:56;94234.09;;;20.10;59.23
39739;BME280;25422;48.286;8.484;2023-08-08T10:49:22;94231.50;;;21.29;53.79
39739;BME280;25422;48.286;8.484;2023-08-08T10:51:49;94226.34;;;21.51;51.84
39739;BME280;25422;48.286;8.484;2023-08-08T10:54:16;94229.06;;;20.56;53.96
39739;BME280;25422;48.286;8.484;2023-08-08T10:56:50;94228.06;;;19.05;59.72
39739;BME280;25422;48.286;8.484;2023-08-08T10:59:27;94236.06;;;18.54;62.40
39739;BME280;25422;48.286;8.484;2023-08-08T11:02:00;94223.84;;;18.28;67.66
39739;BME280;25422;48.286;8.484;2023-08-08T11:04:31;94228.63;;;18.19;67.27
39739;BME280;25422;48.286;8.484;2023-08-08T11:07:05;94227.06;;;18.56;65.91
39739;BME280;25422;48.286;8.484;2023-08-08T11:09:31;94227.97;;;18.93;60.36
39739;BME280;25422;48.286;8.484;2023-08-08T11:11:59;94239.41;;;18.68;63.42
39739;BME280;25422;48.286;8.484;2023-08-08T11:14:30;94239.13;;;19.69;65.24
39739;BME280;25422;48.286;8.484;2023-08-08T11:16:57;94224.66;;;20.26;58.31
39739;BME280;25422;48.286;8.484;2023-08-08T11:19:25;94220.59;;;20.12;56.39
39739;BME280;25422;48.286;8.484;2023-08-08T11:21:52;94224.50;;;19.48;55.26
39739;BME280;25422;48.286;8.484;2023-08-08T11:24:19;94232.13;;;18.82;59.91
39739;BME280;25422;48.286;8.484;2023-08-08T11:26:45;94226.22;;;18.62;62.17
39739;BME280;25422;48.286;8.484;2023-08-08T11:29:12;94225.53;;;19.29;61.46
39739;BME280;25422;48.286;8.484;2023-08-08T11:31:37;94222.03;;;20.50;56.31
39739;BME280;25422;48.286;8.484;2023-08-08T11:34:04;94230.41;;;21.82;53.25
39739;BME280;25422;48.286;8.484;2023-08-08T11:36:34;94223.81;;;21.85;48.82
39739;BME280;25422;48.286;8.484;2023-08-08T11:39:02;94210.75;;;22.63;46.41
39739;BME280;25422;48.286;8.484;2023-08-08T11:41:33;94216.38;;;22.33;46.11
39739;BME280;25422;48.286;8.484;2023-08-08T11:43:59;94219.63;;;21.48;48.00
39739;BME280;25422;48.286;8.484;2023-08-08T11:46:25;94220.59;;;20.24;51.72
39739;BME280;25422;48.286;8.484;2023-08-08T11:48:50;94214.13;;;19.28;55.95
39739;BME280;25422;48.286;8.484;2023-08-08T11:51:16;94205.03;;;18.62;64.60
39739;BME280;25422;48.286;8.484;2023-08-08T11:53:50;94217.69;;;18.78;63.73
39739;BME280;25422;48.286;8.484;2023-08-08T11:56:17;94213.41;;;19.70;61.84
39739;BME280;25422;48.286;8.484;2023-08-08T11:58:43;94207.75;;;20.86;55.23
39739;BME280;25422;48.286;8.484;2023-08-08T12:01:09;94215.44;;;21.93;52.84
39739;BME280;25422;48.286;8.484;2023-08-08T12:03:38;94206.09;;;22.08;50.07
39739;BME280;25422;48.286;8.484;2023-08-08T12:06:14;94202.69;;;21.95;51.44
39739;BME280;25422;48.286;8.484;2023-08-08T12:08:44;94194.31;;;22.88;46.40
39739;BME280;25422;48.286;8.484;2023-08-08T12:11:11;94213.56;;;22.39;50.63
39739;BME280;25422;48.286;8.484;2023-08-08T12:13:38;94216.50;;;22.09;48.28
39739;BME280;25422;48.286;8.484;2023-08-08T12:16:11;94212.75;;;21.23;50.98
39739;BME280;25422;48.286;8.484;2023-08-08T12:18:38;94205.75;;;22.04;49.09
39739;BME280;25422;48.286;8.484;2023-08-08T12:21:08;94207.31;;;22.34;47.96
39739;BME280;25422;48.286;8.484;2023-08-08T12:23:34;94208.88;;;23.42;44.43
39739;BME280;25422;48.286;8.484;2023-08-08T12:26:03;94200.94;;;23.25;42.87
39739;BME280;25422;48.286;8.484;2023-08-08T12:28:30;94207.75;;;22.77;44.67
39739;BME280;25422;48.286;8.484;2023-08-08T12:30:55;94199.19;;;22.40;42.20
39739;BME280;25422;48.286;8.484;2023-08-08T12:33:21;94205.38;;;21.14;46.46
39739;BME280;25422;48.286;8.484;2023-08-08T12:35:47;94210.44;;;20.20;52.74
39739;BME280;25422;48.286;8.484;2023-08-08T12:38:13;94216.34;;;19.80;53.49
39739;BME280;25422;48.286;8.484;2023-08-08T12:40:39;94202.06;;;20.47;53.00
39739;BME280;25422;48.286;8.484;2023-08-08T12:43:05;94206.13;;;19.96;54.92
39739;BME280;25422;48.286;8.484;2023-08-08T12:45:30;94205.63;;;19.57;58.38
39739;BME280;25422;48.286;8.484;2023-08-08T12:47:55;94207.66;;;19.24;58.24
39739;BME280;25422;48.286;8.484;2023-08-08T12:50:21;94204.94;;;19.12;59.87
39739;BME280;25422;48.286;8.484;2023-08-08T12:52:46;94216.00;;;19.09;60.57
39739;BME280;25422;48.286;8.484;2023-08-08T12:55:12;94217.03;;;18.90;62.22
39739;BME280;25422;48.286;8.484;2023-08-08T12:57:37;94208.69;;;18.61;62.70